Terminal Aerodrome Forecast
Issued by NWS Northern Indiana

Home | Current Version | Previous Version | Text Only | Print | Product List | Glossary Off
Versions: 1 2 3 4 5 6 7 8 9 10 11 12 13 14 15 16 17 18 19 20

000
FTUS43 KIWX 201143
TAFFWA
TAF
KFWA 201143Z 2012/2112 23015KT P6SM SCT250 WS020/24050KT
     FM201400 23011G19KT P6SM SCT035 BKN250
     FM202000 22008KT 5SM BR BKN010
     FM210300 21005KT 2SM -DZ BR OVC008
     FM210600 20005KT 1SM -DZ BR OVC005=

USA.gov is the U.S. government's official web portal to all federal, state and local government web resources and services.